Terminal Aerodrome Forecast
Issued by NWS Paducah, KY

Home | Current Version | Previous Version | Text Only | Print | Product List | Glossary On
Versions: 1 2 3 4 5 6 7 8 9 10 11 12 13 14 15 16 17 18 19 20
000
FTUS43 KPAH 050520
TAFEVV
TAF
KEVV 050520Z 0506/0606 00000KT 2SM BR SCT040 BKN250
     FM050900 00000KT 1SM BR FEW035 BKN250
     FM051300 00000KT 3SM BR SCT250
     FM051500 VRB04KT 6SM BR SCT250
     FM051700 VRB04KT P6SM SCT040=

USA.gov is the U.S. government's official web portal to all federal, state and local government web resources and services.